sensor_id;sensor_type;location;lat;lon;timestamp;P1;durP1;ratioP1;P2;durP2;ratioP2
14143;SDS011;7152;48.348;10.980;2023-07-08T00:00:25;5.57;;;4.40;;
14143;SDS011;7152;48.348;10.980;2023-07-08T00:02:51;6.10;;;4.43;;
14143;SDS011;7152;48.348;10.980;2023-07-08T00:05:18;6.03;;;4.30;;
14143;SDS011;7152;48.348;10.980;2023-07-08T00:07:46;5.27;;;4.77;;
14143;SDS011;7152;48.348;10.980;2023-07-08T00:10:19;5.53;;;4.90;;
14143;SDS011;7152;48.348;10.980;2023-07-08T00:12:51;6.43;;;5.40;;
14143;SDS011;7152;48.348;10.980;2023-07-08T00:15:19;6.90;;;4.97;;
14143;SDS011;7152;48.348;10.980;2023-07-08T00:17:47;7.00;;;4.80;;
14143;SDS011;7152;48.348;10.980;2023-07-08T00:20:17;5.40;;;4.67;;
14143;SDS011;7152;48.348;10.980;2023-07-08T00:22:47;6.27;;;4.90;;
14143;SDS011;7152;48.348;10.980;2023-07-08T00:25:18;5.80;;;4.90;;
14143;SDS011;7152;48.348;10.980;2023-07-08T00:27:47;8.47;;;5.00;;
14143;SDS011;7152;48.348;10.980;2023-07-08T00:32:50;6.00;;;4.57;;
14143;SDS011;7152;48.348;10.980;2023-07-08T00:35:22;4.97;;;4.47;;
14143;SDS011;7152;48.348;10.980;2023-07-08T00:38:24;6.27;;;4.80;;
14143;SDS011;7152;48.348;10.980;2023-07-08T00:43:27;5.17;;;4.67;;
14143;SDS011;7152;48.348;10.980;2023-07-08T00:46:16;6.13;;;4.63;;
14143;SDS011;7152;48.348;10.980;2023-07-08T00:48:53;5.23;;;4.20;;
14143;SDS011;7152;48.348;10.980;2023-07-08T00:51:23;6.37;;;4.77;;
14143;SDS011;7152;48.348;10.980;2023-07-08T00:53:49;5.30;;;4.70;;
14143;SDS011;7152;48.348;10.980;2023-07-08T00:56:16;4.83;;;4.33;;
14143;SDS011;7152;48.348;10.980;2023-07-08T00:58:49;5.73;;;4.37;;
14143;SDS011;7152;48.348;10.980;2023-07-08T01:01:20;4.70;;;4.20;;
14143;SDS011;7152;48.348;10.980;2023-07-08T01:03:51;7.27;;;5.23;;
14143;SDS011;7152;48.348;10.980;2023-07-08T01:06:26;4.80;;;4.30;;
14143;SDS011;7152;48.348;10.980;2023-07-08T01:09:03;5.53;;;4.70;;
14143;SDS011;7152;48.348;10.980;2023-07-08T01:11:30;5.93;;;4.60;;
14143;SDS011;7152;48.348;10.980;2023-07-08T01:13:57;5.47;;;4.70;;
14143;SDS011;7152;48.348;10.980;2023-07-08T01:16:26;6.50;;;5.07;;
14143;SDS011;7152;48.348;10.980;2023-07-08T01:18:52;7.30;;;4.73;;
14143;SDS011;7152;48.348;10.980;2023-07-08T01:21:30;6.00;;;4.50;;
14143;SDS011;7152;48.348;10.980;2023-07-08T01:24:00;6.47;;;4.10;;
14143;SDS011;7152;48.348;10.980;2023-07-08T01:26:29;5.33;;;4.70;;
14143;SDS011;7152;48.348;10.980;2023-07-08T01:28:57;6.03;;;4.43;;
14143;SDS011;7152;48.348;10.980;2023-07-08T01:31:23;4.83;;;4.27;;
14143;SDS011;7152;48.348;10.980;2023-07-08T01:33:49;5.17;;;4.67;;
14143;SDS011;7152;48.348;10.980;2023-07-08T01:36:17;6.37;;;4.53;;
14143;SDS011;7152;48.348;10.980;2023-07-08T01:38:43;5.93;;;4.73;;
14143;SDS011;7152;48.348;10.980;2023-07-08T01:41:11;5.73;;;4.60;;
14143;SDS011;7152;48.348;10.980;2023-07-08T01:43:39;5.43;;;4.57;;
14143;SDS011;7152;48.348;10.980;2023-07-08T01:46:07;6.10;;;4.70;;
14143;SDS011;7152;48.348;10.980;2023-07-08T01:48:41;6.43;;;4.70;;
14143;SDS011;7152;48.348;10.980;2023-07-08T01:51:13;5.57;;;3.93;;
14143;SDS011;7152;48.348;10.980;2023-07-08T01:53:40;6.63;;;4.53;;
14143;SDS011;7152;48.348;10.980;2023-07-08T01:56:08;7.87;;;5.00;;
14143;SDS011;7152;48.348;10.980;2023-07-08T01:58:35;6.00;;;5.10;;
14143;SDS011;7152;48.348;10.980;2023-07-08T02:01:01;7.37;;;4.77;;
14143;SDS011;7152;48.348;10.980;2023-07-08T02:03:27;5.47;;;4.77;;
14143;SDS011;7152;48.348;10.980;2023-07-08T02:05:54;5.60;;;5.10;;
14143;SDS011;7152;48.348;10.980;2023-07-08T02:08:20;6.20;;;4.30;;
14143;SDS011;7152;48.348;10.980;2023-07-08T02:10:49;7.23;;;4.83;;
14143;SDS011;7152;48.348;10.980;2023-07-08T02:13:23;5.67;;;5.07;;
14143;SDS011;7152;48.348;10.980;2023-07-08T02:15:50;6.03;;;4.77;;
14143;SDS011;7152;48.348;10.980;2023-07-08T02:18:16;7.40;;;4.97;;
14143;SDS011;7152;48.348;10.980;2023-07-08T02:20:44;5.70;;;4.60;;
14143;SDS011;7152;48.348;10.980;2023-07-08T02:23:10;5.50;;;4.03;;
14143;SDS011;7152;48.348;10.980;2023-07-08T02:25:36;5.10;;;4.57;;
14143;SDS011;7152;48.348;10.980;2023-07-08T02:28:02;5.40;;;4.30;;
14143;SDS011;7152;48.348;10.980;2023-07-08T02:30:28;5.50;;;4.87;;
14143;SDS011;7152;48.348;10.980;2023-07-08T02:32:54;6.13;;;4.47;;
14143;SDS011;7152;48.348;10.980;2023-07-08T02:35:24;4.90;;;4.20;;
14143;SDS011;7152;48.348;10.980;2023-07-08T02:37:51;4.73;;;4.33;;
14143;SDS011;7152;48.348;10.980;2023-07-08T02:40:18;5.07;;;4.57;;
14143;SDS011;7152;48.348;10.980;2023-07-08T02:42:44;5.23;;;4.53;;
14143;SDS011;7152;48.348;10.980;2023-07-08T02:45:10;7.87;;;4.77;;
14143;SDS011;7152;48.348;10.980;2023-07-08T02:47:37;6.57;;;4.30;;
14143;SDS011;7152;48.348;10.980;2023-07-08T02:50:07;5.13;;;4.40;;
14143;SDS011;7152;48.348;10.980;2023-07-08T02:52:34;5.40;;;4.60;;
14143;SDS011;7152;48.348;10.980;2023-07-08T02:55:00;5.90;;;3.93;;
14143;SDS011;7152;48.348;10.980;2023-07-08T02:57:26;5.43;;;4.43;;
14143;SDS011;7152;48.348;10.980;2023-07-08T02:59:52;6.93;;;4.77;;
14143;SDS011;7152;48.348;10.980;2023-07-08T03:02:17;5.33;;;4.50;;
14143;SDS011;7152;48.348;10.980;2023-07-08T03:04:43;5.13;;;4.40;;
14143;SDS011;7152;48.348;10.980;2023-07-08T03:07:10;5.87;;;4.57;;
14143;SDS011;7152;48.348;10.980;2023-07-08T03:09:37;6.03;;;4.40;;
14143;SDS011;7152;48.348;10.980;2023-07-08T03:12:08;4.97;;;4.27;;
14143;SDS011;7152;48.348;10.980;2023-07-08T03:14:35;5.70;;;5.10;;
14143;SDS011;7152;48.348;10.980;2023-07-08T03:17:02;8.43;;;5.10;;
14143;SDS011;7152;48.348;10.980;2023-07-08T03:19:28;4.93;;;4.33;;
14143;SDS011;7152;48.348;10.980;2023-07-08T03:21:54;6.13;;;4.50;;
14143;SDS011;7152;48.348;10.980;2023-07-08T03:24:20;8.33;;;5.00;;
14143;SDS011;7152;48.348;10.980;2023-07-08T03:26:47;5.70;;;4.70;;
14143;SDS011;7152;48.348;10.980;2023-07-08T03:29:17;6.83;;;4.50;;
14143;SDS011;7152;48.348;10.980;2023-07-08T03:31:45;5.17;;;4.43;;
14143;SDS011;7152;48.348;10.980;2023-07-08T03:34:12;6.80;;;4.60;;
14143;SDS011;7152;48.348;10.980;2023-07-08T03:36:43;5.40;;;4.73;;
14143;SDS011;7152;48.348;10.980;2023-07-08T03:39:15;6.33;;;5.00;;
14143;SDS011;7152;48.348;10.980;2023-07-08T03:41:46;5.80;;;5.20;;
14143;SDS011;7152;48.348;10.980;2023-07-08T03:44:13;6.43;;;4.53;;
14143;SDS011;7152;48.348;10.980;2023-07-08T03:46:41;5.63;;;4.57;;
14143;SDS011;7152;48.348;10.980;2023-07-08T03:49:09;6.33;;;4.83;;
14143;SDS011;7152;48.348;10.980;2023-07-08T03:51:37;5.00;;;4.50;;
14143;SDS011;7152;48.348;10.980;2023-07-08T03:54:05;7.30;;;5.23;;
14143;SDS011;7152;48.348;10.980;2023-07-08T03:56:34;5.80;;;5.17;;
14143;SDS011;7152;48.348;10.980;2023-07-08T03:59:01;5.30;;;4.70;;
14143;SDS011;7152;48.348;10.980;2023-07-08T04:01:28;5.77;;;4.67;;
14143;SDS011;7152;48.348;10.980;2023-07-08T04:03:55;5.57;;;4.90;;
14143;SDS011;7152;48.348;10.980;2023-07-08T04:06:22;6.10;;;4.90;;
14143;SDS011;7152;48.348;10.980;2023-07-08T04:08:49;7.57;;;5.03;;
14143;SDS011;7152;48.348;10.980;2023-07-08T04:11:16;6.23;;;5.57;;
14143;SDS011;7152;48.348;10.980;2023-07-08T04:13:44;7.47;;;5.60;;
14143;SDS011;7152;48.348;10.980;2023-07-08T04:16:17;9.43;;;6.27;;
14143;SDS011;7152;48.348;10.980;2023-07-08T04:18:46;7.63;;;5.90;;
14143;SDS011;7152;48.348;10.980;2023-07-08T04:21:13;6.70;;;6.00;;
14143;SDS011;7152;48.348;10.980;2023-07-08T04:23:38;8.53;;;5.87;;
14143;SDS011;7152;48.348;10.980;2023-07-08T04:26:04;9.00;;;6.63;;
14143;SDS011;7152;48.348;10.980;2023-07-08T04:28:30;6.63;;;5.80;;
14143;SDS011;7152;48.348;10.980;2023-07-08T04:30:56;8.60;;;5.90;;
14143;SDS011;7152;48.348;10.980;2023-07-08T04:33:22;7.93;;;6.20;;
14143;SDS011;7152;48.348;10.980;2023-07-08T04:35:47;7.23;;;5.53;;
14143;SDS011;7152;48.348;10.980;2023-07-08T04:38:20;6.37;;;5.40;;
14143;SDS011;7152;48.348;10.980;2023-07-08T04:40:48;6.67;;;5.93;;
14143;SDS011;7152;48.348;10.980;2023-07-08T04:43:16;7.90;;;6.13;;
14143;SDS011;7152;48.348;10.980;2023-07-08T04:45:43;7.67;;;5.57;;
14143;SDS011;7152;48.348;10.980;2023-07-08T04:48:14;6.17;;;5.60;;
14143;SDS011;7152;48.348;10.980;2023-07-08T04:50:41;7.40;;;5.30;;
14143;SDS011;7152;48.348;10.980;2023-07-08T04:53:08;6.30;;;5.40;;
14143;SDS011;7152;48.348;10.980;2023-07-08T04:55:35;7.77;;;6.00;;
14143;SDS011;7152;48.348;10.980;2023-07-08T04:58:18;6.83;;;5.60;;
14143;SDS011;7152;48.348;10.980;2023-07-08T05:00:43;6.77;;;5.57;;
14143;SDS011;7152;48.348;10.980;2023-07-08T05:03:10;5.97;;;5.20;;
14143;SDS011;7152;48.348;10.980;2023-07-08T05:05:35;6.90;;;5.47;;
14143;SDS011;7152;48.348;10.980;2023-07-08T05:08:01;5.80;;;5.00;;
14143;SDS011;7152;48.348;10.980;2023-07-08T05:10:27;7.63;;;5.67;;
14143;SDS011;7152;48.348;10.980;2023-07-08T05:12:53;6.83;;;5.13;;
14143;SDS011;7152;48.348;10.980;2023-07-08T05:15:20;6.63;;;5.67;;
14143;SDS011;7152;48.348;10.980;2023-07-08T05:17:47;6.60;;;5.33;;
14143;SDS011;7152;48.348;10.980;2023-07-08T05:20:13;8.03;;;5.80;;
14143;SDS011;7152;48.348;10.980;2023-07-08T05:22:40;6.27;;;5.67;;
14143;SDS011;7152;48.348;10.980;2023-07-08T05:25:08;6.67;;;5.97;;
14143;SDS011;7152;48.348;10.980;2023-07-08T05:27:34;7.47;;;6.07;;
14143;SDS011;7152;48.348;10.980;2023-07-08T05:30:03;7.83;;;6.17;;
14143;SDS011;7152;48.348;10.980;2023-07-08T05:32:31;5.73;;;5.10;;
14143;SDS011;7152;48.348;10.980;2023-07-08T05:34:57;6.80;;;6.20;;
14143;SDS011;7152;48.348;10.980;2023-07-08T05:37:23;6.30;;;5.60;;
14143;SDS011;7152;48.348;10.980;2023-07-08T05:39:51;7.27;;;5.40;;
14143;SDS011;7152;48.348;10.980;2023-07-08T05:42:19;7.00;;;5.97;;
14143;SDS011;7152;48.348;10.980;2023-07-08T05:44:46;6.40;;;5.50;;
14143;SDS011;7152;48.348;10.980;2023-07-08T05:47:12;6.83;;;6.13;;
14143;SDS011;7152;48.348;10.980;2023-07-08T05:49:39;6.37;;;5.73;;
14143;SDS011;7152;48.348;10.980;2023-07-08T05:52:05;6.73;;;5.63;;
14143;SDS011;7152;48.348;10.980;2023-07-08T05:54:38;6.27;;;5.50;;
14143;SDS011;7152;48.348;10.980;2023-07-08T05:57:05;6.37;;;5.67;;
14143;SDS011;7152;48.348;10.980;2023-07-08T05:59:34;6.80;;;6.10;;
14143;SDS011;7152;48.348;10.980;2023-07-08T06:02:00;7.37;;;5.40;;
14143;SDS011;7152;48.348;10.980;2023-07-08T06:04:27;6.90;;;5.30;;
14143;SDS011;7152;48.348;10.980;2023-07-08T06:06:53;7.33;;;5.93;;
14143;SDS011;7152;48.348;10.980;2023-07-08T06:09:19;8.17;;;5.70;;
14143;SDS011;7152;48.348;10.980;2023-07-08T06:11:45;6.23;;;5.60;;
14143;SDS011;7152;48.348;10.980;2023-07-08T06:14:10;6.27;;;5.47;;
14143;SDS011;7152;48.348;10.980;2023-07-08T06:16:36;6.53;;;5.20;;
14143;SDS011;7152;48.348;10.980;2023-07-08T06:19:02;5.97;;;5.33;;
14143;SDS011;7152;48.348;10.980;2023-07-08T06:21:28;7.37;;;5.50;;
14143;SDS011;7152;48.348;10.980;2023-07-08T06:23:54;6.33;;;5.13;;
14143;SDS011;7152;48.348;10.980;2023-07-08T06:26:19;6.73;;;5.47;;
14143;SDS011;7152;48.348;10.980;2023-07-08T06:28:45;8.53;;;5.60;;
14143;SDS011;7152;48.348;10.980;2023-07-08T06:31:11;7.17;;;5.23;;
14143;SDS011;7152;48.348;10.980;2023-07-08T06:33:37;6.60;;;5.43;;
14143;SDS011;7152;48.348;10.980;2023-07-08T06:36:03;5.87;;;5.10;;
14143;SDS011;7152;48.348;10.980;2023-07-08T06:38:29;7.17;;;5.63;;
14143;SDS011;7152;48.348;10.980;2023-07-08T06:40:55;7.33;;;5.00;;
14143;SDS011;7152;48.348;10.980;2023-07-08T06:43:21;6.50;;;5.47;;
14143;SDS011;7152;48.348;10.980;2023-07-08T06:45:49;6.87;;;5.47;;
14143;SDS011;7152;48.348;10.980;2023-07-08T06:48:15;6.53;;;5.73;;
14143;SDS011;7152;48.348;10.980;2023-07-08T06:50:42;6.27;;;5.67;;
14143;SDS011;7152;48.348;10.980;2023-07-08T06:53:10;5.80;;;5.20;;
14143;SDS011;7152;48.348;10.980;2023-07-08T06:55:36;5.57;;;4.90;;
14143;SDS011;7152;48.348;10.980;2023-07-08T06:58:02;6.70;;;5.27;;
14143;SDS011;7152;48.348;10.980;2023-07-08T07:00:28;6.80;;;5.30;;
14143;SDS011;7152;48.348;10.980;2023-07-08T07:02:54;6.10;;;5.50;;
14143;SDS011;7152;48.348;10.980;2023-07-08T07:05:20;6.50;;;5.80;;
14143;SDS011;7152;48.348;10.980;2023-07-08T07:07:46;6.27;;;5.67;;
14143;SDS011;7152;48.348;10.980;2023-07-08T07:10:11;7.57;;;5.33;;
14143;SDS011;7152;48.348;10.980;2023-07-08T07:12:37;7.50;;;6.18;;
14143;SDS011;7152;48.348;10.980;2023-07-08T07:15:03;7.67;;;5.93;;
14143;SDS011;7152;48.348;10.980;2023-07-08T07:17:30;8.47;;;6.40;;
14143;SDS011;7152;48.348;10.980;2023-07-08T07:19:56;7.07;;;6.38;;
14143;SDS011;7152;48.348;10.980;2023-07-08T07:22:22;6.55;;;5.85;;
14143;SDS011;7152;48.348;10.980;2023-07-08T07:24:48;6.65;;;5.30;;
14143;SDS011;7152;48.348;10.980;2023-07-08T07:27:14;6.90;;;6.00;;
14143;SDS011;7152;48.348;10.980;2023-07-08T07:29:41;7.33;;;5.80;;
14143;SDS011;7152;48.348;10.980;2023-07-08T07:32:10;6.82;;;6.22;;
14143;SDS011;7152;48.348;10.980;2023-07-08T07:34:36;7.75;;;5.75;;
14143;SDS011;7152;48.348;10.980;2023-07-08T07:37:03;6.80;;;6.10;;
14143;SDS011;7152;48.348;10.980;2023-07-08T07:39:30;7.22;;;6.30;;
14143;SDS011;7152;48.348;10.980;2023-07-08T07:41:56;9.17;;;6.20;;
14143;SDS011;7152;48.348;10.980;2023-07-08T07:44:21;7.77;;;5.80;;
14143;SDS011;7152;48.348;10.980;2023-07-08T07:46:47;6.78;;;6.05;;
14143;SDS011;7152;48.348;10.980;2023-07-08T07:49:13;8.18;;;5.78;;
14143;SDS011;7152;48.348;10.980;2023-07-08T07:51:39;7.50;;;6.60;;
14143;SDS011;7152;48.348;10.980;2023-07-08T07:54:05;9.30;;;6.40;;
14143;SDS011;7152;48.348;10.980;2023-07-08T07:56:32;7.07;;;6.37;;
14143;SDS011;7152;48.348;10.980;2023-07-08T07:58:58;9.03;;;6.80;;
14143;SDS011;7152;48.348;10.980;2023-07-08T08:01:24;7.67;;;6.87;;
14143;SDS011;7152;48.348;10.980;2023-07-08T08:03:50;7.57;;;6.88;;
14143;SDS011;7152;48.348;10.980;2023-07-08T08:06:16;8.45;;;7.55;;
14143;SDS011;7152;48.348;10.980;2023-07-08T08:08:43;8.02;;;7.22;;
14143;SDS011;7152;48.348;10.980;2023-07-08T08:11:10;8.33;;;7.43;;
14143;SDS011;7152;48.348;10.980;2023-07-08T08:13:36;8.98;;;7.60;;
14143;SDS011;7152;48.348;10.980;2023-07-08T08:16:03;8.30;;;7.45;;
14143;SDS011;7152;48.348;10.980;2023-07-08T08:18:29;8.02;;;7.22;;
14143;SDS011;7152;48.348;10.980;2023-07-08T08:20:55;8.45;;;7.22;;
14143;SDS011;7152;48.348;10.980;2023-07-08T08:23:21;8.90;;;7.45;;
14143;SDS011;7152;48.348;10.980;2023-07-08T08:25:47;9.77;;;7.35;;
14143;SDS011;7152;48.348;10.980;2023-07-08T08:28:13;7.88;;;6.97;;
14143;SDS011;7152;48.348;10.980;2023-07-08T08:30:39;8.20;;;7.22;;
14143;SDS011;7152;48.348;10.980;2023-07-08T08:33:04;7.88;;;6.93;;
14143;SDS011;7152;48.348;10.980;2023-07-08T08:35:30;10.40;;;7.45;;
14143;SDS011;7152;48.348;10.980;2023-07-08T08:37:56;7.65;;;6.90;;
14143;SDS011;7152;48.348;10.980;2023-07-08T08:40:22;7.75;;;6.95;;
14143;SDS011;7152;48.348;10.980;2023-07-08T08:42:52;9.27;;;7.25;;
14143;SDS011;7152;48.348;10.980;2023-07-08T08:45:23;7.65;;;6.85;;
14143;SDS011;7152;48.348;10.980;2023-07-08T08:47:53;8.07;;;6.72;;
14143;SDS011;7152;48.348;10.980;2023-07-08T08:50:57;8.18;;;7.10;;
14143;SDS011;7152;48.348;10.980;2023-07-08T08:53:21;8.98;;;7.30;;
14143;SDS011;7152;48.348;10.980;2023-07-08T08:56:03;8.70;;;7.60;;
14143;SDS011;7152;48.348;10.980;2023-07-08T09:01:08;8.18;;;7.38;;
14143;SDS011;7152;48.348;10.980;2023-07-08T09:03:39;7.78;;;6.97;;
14143;SDS011;7152;48.348;10.980;2023-07-08T09:08:49;7.85;;;6.95;;
14143;SDS011;7152;48.348;10.980;2023-07-08T09:13:47;8.32;;;6.95;;
14143;SDS011;7152;48.348;10.980;2023-07-08T09:19:23;7.72;;;6.80;;
14143;SDS011;7152;48.348;10.980;2023-07-08T09:22:02;7.85;;;6.35;;
14143;SDS011;7152;48.348;10.980;2023-07-08T09:24:56;7.78;;;6.80;;
14143;SDS011;7152;48.348;10.980;2023-07-08T09:27:37;6.50;;;5.80;;
14143;SDS011;7152;48.348;10.980;2023-07-08T09:30:03;7.38;;;5.78;;
14143;SDS011;7152;48.348;10.980;2023-07-08T09:32:29;7.72;;;6.07;;
14143;SDS011;7152;48.348;10.980;2023-07-08T09:35:03;8.35;;;6.63;;
14143;SDS011;7152;48.348;10.980;2023-07-08T09:39:59;7.03;;;5.93;;
14143;SDS011;7152;48.348;10.980;2023-07-08T09:42:32;7.85;;;6.40;;
14143;SDS011;7152;48.348;10.980;2023-07-08T09:45:11;7.88;;;6.25;;
14143;SDS011;7152;48.348;10.980;2023-07-08T09:47:42;6.75;;;5.68;;
14143;SDS011;7152;48.348;10.980;2023-07-08T09:50:21;7.60;;;5.82;;
14143;SDS011;7152;48.348;10.980;2023-07-08T09:52:50;7.55;;;5.40;;
14143;SDS011;7152;48.348;10.980;2023-07-08T09:55:19;6.60;;;5.45;;
14143;SDS011;7152;48.348;10.980;2023-07-08T09:57:46;6.28;;;5.50;;
14143;SDS011;7152;48.348;10.980;2023-07-08T10:00:17;6.50;;;5.80;;
14143;SDS011;7152;48.348;10.980;2023-07-08T10:02:46;9.73;;;6.32;;
14143;SDS011;7152;48.348;10.980;2023-07-08T10:05:13;6.35;;;5.75;;
14143;SDS011;7152;48.348;10.980;2023-07-08T10:07:45;6.80;;;5.70;;
14143;SDS011;7152;48.348;10.980;2023-07-08T10:10:17;7.03;;;5.85;;
14143;SDS011;7152;48.348;10.980;2023-07-08T10:12:58;6.28;;;5.60;;
14143;SDS011;7152;48.348;10.980;2023-07-08T10:15:35;6.57;;;5.85;;
14143;SDS011;7152;48.348;10.980;2023-07-08T10:18:07;7.22;;;6.25;;
14143;SDS011;7152;48.348;10.980;2023-07-08T10:20:41;7.80;;;5.70;;
14143;SDS011;7152;48.348;10.980;2023-07-08T10:23:18;6.20;;;5.68;;
14143;SDS011;7152;48.348;10.980;2023-07-08T10:26:26;6.82;;;5.40;;
14143;SDS011;7152;48.348;10.980;2023-07-08T10:31:48;8.50;;;6.07;;
14143;SDS011;7152;48.348;10.980;2023-07-08T10:37:28;7.20;;;5.80;;
14143;SDS011;7152;48.348;10.980;2023-07-08T10:40:20;6.47;;;5.20;;
14143;SDS011;7152;48.348;10.980;2023-07-08T10:45:53;6.35;;;5.63;;
14143;SDS011;7152;48.348;10.980;2023-07-08T11:00:07;6.38;;;5.72;;
14143;SDS011;7152;48.348;10.980;2023-07-08T11:05:52;7.03;;;5.72;;
14143;SDS011;7152;48.348;10.980;2023-07-08T11:08:29;9.05;;;5.85;;
14143;SDS011;7152;48.348;10.980;2023-07-08T11:14:03;7.25;;;6.22;;
14143;SDS011;7152;48.348;10.980;2023-07-08T11:16:37;6.97;;;5.43;;
14143;SDS011;7152;48.348;10.980;2023-07-08T11:19:19;5.88;;;5.10;;
14143;SDS011;7152;48.348;10.980;2023-07-08T11:22:11;6.20;;;5.15;;
14143;SDS011;7152;48.348;10.980;2023-07-08T11:24:49;7.03;;;5.38;;
14143;SDS011;7152;48.348;10.980;2023-07-08T11:29:50;7.45;;;5.40;;
14143;SDS011;7152;48.348;10.980;2023-07-08T11:32:18;7.50;;;5.00;;
14143;SDS011;7152;48.348;10.980;2023-07-08T11:34:47;6.15;;;5.43;;
14143;SDS011;7152;48.348;10.980;2023-07-08T11:37:15;6.30;;;5.40;;
14143;SDS011;7152;48.348;10.980;2023-07-08T11:39:45;6.13;;;5.20;;
14143;SDS011;7152;48.348;10.980;2023-07-08T11:44:51;6.80;;;5.22;;
14143;SDS011;7152;48.348;10.980;2023-07-08T11:50:21;6.82;;;5.43;;
14143;SDS011;7152;48.348;10.980;2023-07-08T11:53:00;6.75;;;5.50;;
14143;SDS011;7152;48.348;10.980;2023-07-08T11:58:06;7.18;;;5.10;;
14143;SDS011;7152;48.348;10.980;2023-07-08T12:00:33;7.63;;;5.68;;
14143;SDS011;7152;48.348;10.980;2023-07-08T12:03:12;7.10;;;5.95;;
14143;SDS011;7152;48.348;10.980;2023-07-08T12:05:47;8.25;;;5.30;;
14143;SDS011;7152;48.348;10.980;2023-07-08T12:08:14;5.53;;;4.97;;
14143;SDS011;7152;48.348;10.980;2023-07-08T12:10:50;6.00;;;4.80;;
14143;SDS011;7152;48.348;10.980;2023-07-08T12:13:19;6.72;;;5.30;;
14143;SDS011;7152;48.348;10.980;2023-07-08T12:15:49;6.35;;;5.35;;
14143;SDS011;7152;48.348;10.980;2023-07-08T12:18:25;5.70;;;5.07;;
14143;SDS011;7152;48.348;10.980;2023-07-08T12:20:58;6.22;;;4.50;;
14143;SDS011;7152;48.348;10.980;2023-07-08T12:23:26;5.68;;;4.50;;
14143;SDS011;7152;48.348;10.980;2023-07-08T12:25:53;6.30;;;5.03;;
14143;SDS011;7152;48.348;10.980;2023-07-08T12:28:21;6.30;;;4.70;;
14143;SDS011;7152;48.348;10.980;2023-07-08T12:30:47;6.35;;;4.60;;
14143;SDS011;7152;48.348;10.980;2023-07-08T12:33:16;5.40;;;4.90;;
14143;SDS011;7152;48.348;10.980;2023-07-08T12:35:47;6.80;;;4.75;;
14143;SDS011;7152;48.348;10.980;2023-07-08T12:38:21;7.55;;;4.53;;
14143;SDS011;7152;48.348;10.980;2023-07-08T12:40:53;5.47;;;4.50;;
14143;SDS011;7152;48.348;10.980;2023-07-08T12:43:20;5.63;;;4.40;;
14143;SDS011;7152;48.348;10.980;2023-07-08T12:45:46;5.13;;;4.63;;
14143;SDS011;7152;48.348;10.980;2023-07-08T12:48:12;6.00;;;4.63;;
14143;SDS011;7152;48.348;10.980;2023-07-08T12:50:38;4.93;;;4.45;;
14143;SDS011;7152;48.348;10.980;2023-07-08T12:53:05;7.03;;;4.57;;
14143;SDS011;7152;48.348;10.980;2023-07-08T12:55:38;6.28;;;4.85;;
14143;SDS011;7152;48.348;10.980;2023-07-08T12:58:08;5.50;;;4.63;;
14143;SDS011;7152;48.348;10.980;2023-07-08T13:00:39;5.13;;;4.63;;
14143;SDS011;7152;48.348;10.980;2023-07-08T13:03:08;5.50;;;4.88;;
14143;SDS011;7152;48.348;10.980;2023-07-08T13:05:43;7.65;;;4.70;;
14143;SDS011;7152;48.348;10.980;2023-07-08T13:08:13;6.15;;;5.18;;
14143;SDS011;7152;48.348;10.980;2023-07-08T13:10:40;4.90;;;4.43;;
14143;SDS011;7152;48.348;10.980;2023-07-08T13:13:08;6.95;;;4.97;;
14143;SDS011;7152;48.348;10.980;2023-07-08T13:15:39;6.28;;;4.80;;
14143;SDS011;7152;48.348;10.980;2023-07-08T13:18:14;5.22;;;4.78;;
14143;SDS011;7152;48.348;10.980;2023-07-08T13:20:42;5.63;;;4.53;;
14143;SDS011;7152;48.348;10.980;2023-07-08T13:23:10;6.07;;;4.93;;
14143;SDS011;7152;48.348;10.980;2023-07-08T13:25:37;4.97;;;4.47;;
14143;SDS011;7152;48.348;10.980;2023-07-08T13:28:17;7.05;;;4.68;;
14143;SDS011;7152;48.348;10.980;2023-07-08T13:30:52;5.78;;;4.53;;
14143;SDS011;7152;48.348;10.980;2023-07-08T13:33:20;7.07;;;4.93;;
14143;SDS011;7152;48.348;10.980;2023-07-08T13:35:47;6.78;;;4.38;;
14143;SDS011;7152;48.348;10.980;2023-07-08T13:38:17;4.88;;;3.80;;
14143;SDS011;7152;48.348;10.980;2023-07-08T13:40:46;5.07;;;4.57;;
14143;SDS011;7152;48.348;10.980;2023-07-08T13:43:14;6.50;;;3.60;;
14143;SDS011;7152;48.348;10.980;2023-07-08T13:45:44;5.13;;;3.92;;
14143;SDS011;7152;48.348;10.980;2023-07-08T13:53:33;4.47;;;4.07;;
14143;SDS011;7152;48.348;10.980;2023-07-08T13:56:53;4.10;;;3.42;;
14143;SDS011;7152;48.348;10.980;2023-07-08T13:59:03;5.97;;;3.60;;
14143;SDS011;7152;48.348;10.980;2023-07-08T14:01:35;4.90;;;4.00;;
14143;SDS011;7152;48.348;10.980;2023-07-08T14:04:04;5.25;;;3.53;;
14143;SDS011;7152;48.348;10.980;2023-07-08T14:06:33;4.75;;;4.18;;
14143;SDS011;7152;48.348;10.980;2023-07-08T14:09:06;4.45;;;4.03;;
14143;SDS011;7152;48.348;10.980;2023-07-08T14:11:37;6.05;;;4.30;;
14143;SDS011;7152;48.348;10.980;2023-07-08T14:14:02;4.18;;;3.78;;
14143;SDS011;7152;48.348;10.980;2023-07-08T14:16:29;6.03;;;4.03;;
14143;SDS011;7152;48.348;10.980;2023-07-08T14:18:57;5.93;;;3.58;;
14143;SDS011;7152;48.348;10.980;2023-07-08T14:21:24;5.35;;;3.80;;
14143;SDS011;7152;48.348;10.980;2023-07-08T14:23:50;5.40;;;4.07;;
14143;SDS011;7152;48.348;10.980;2023-07-08T14:26:16;4.47;;;3.70;;
14143;SDS011;7152;48.348;10.980;2023-07-08T14:28:43;4.18;;;3.55;;
14143;SDS011;7152;48.348;10.980;2023-07-08T14:31:09;4.53;;;3.92;;
14143;SDS011;7152;48.348;10.980;2023-07-08T14:33:37;4.57;;;4.10;;
14143;SDS011;7152;48.348;10.980;2023-07-08T14:36:07;6.43;;;3.97;;
14143;SDS011;7152;48.348;10.980;2023-07-08T14:38:36;4.60;;;4.10;;
14143;SDS011;7152;48.348;10.980;2023-07-08T14:41:02;5.05;;;4.05;;
14143;SDS011;7152;48.348;10.980;2023-07-08T14:43:29;6.40;;;3.85;;
14143;SDS011;7152;48.348;10.980;2023-07-08T14:45:58;6.50;;;3.67;;
14143;SDS011;7152;48.348;10.980;2023-07-08T14:48:29;4.13;;;3.72;;
14143;SDS011;7152;48.348;10.980;2023-07-08T14:50:56;4.70;;;3.85;;
14143;SDS011;7152;48.348;10.980;2023-07-08T14:53:22;5.00;;;4.22;;
14143;SDS011;7152;48.348;10.980;2023-07-08T14:55:49;4.60;;;4.20;;
14143;SDS011;7152;48.348;10.980;2023-07-08T14:58:21;4.20;;;3.80;;
14143;SDS011;7152;48.348;10.980;2023-07-08T15:00:53;4.70;;;3.42;;
14143;SDS011;7152;48.348;10.980;2023-07-08T15:03:21;4.20;;;3.80;;
14143;SDS011;7152;48.348;10.980;2023-07-08T15:05:48;3.42;;;3.08;;
14143;SDS011;7152;48.348;10.980;2023-07-08T15:08:14;4.63;;;4.18;;
14143;SDS011;7152;48.348;10.980;2023-07-08T15:10:42;6.38;;;3.40;;
14143;SDS011;7152;48.348;10.980;2023-07-08T15:13:14;4.63;;;3.42;;
14143;SDS011;7152;48.348;10.980;2023-07-08T15:15:41;5.40;;;4.38;;
14143;SDS011;7152;48.348;10.980;2023-07-08T15:18:10;5.90;;;3.50;;
14143;SDS011;7152;48.348;10.980;2023-07-08T15:20:41;4.63;;;3.80;;
14143;SDS011;7152;48.348;10.980;2023-07-08T15:23:09;5.18;;;3.80;;
14143;SDS011;7152;48.348;10.980;2023-07-08T15:25:35;6.97;;;3.58;;
14143;SDS011;7152;48.348;10.980;2023-07-08T15:28:03;5.35;;;3.80;;
14143;SDS011;7152;48.348;10.980;2023-07-08T15:30:30;4.13;;;3.72;;
14143;SDS011;7152;48.348;10.980;2023-07-08T15:32:57;3.67;;;2.90;;
14143;SDS011;7152;48.348;10.980;2023-07-08T15:35:24;3.83;;;3.50;;
14143;SDS011;7152;48.348;10.980;2023-07-08T15:37:59;3.50;;;3.00;;
14143;SDS011;7152;48.348;10.980;2023-07-08T15:40:32;5.65;;;4.38;;
14143;SDS011;7152;48.348;10.980;2023-07-08T15:43:00;5.38;;;3.70;;
14143;SDS011;7152;48.348;10.980;2023-07-08T15:45:29;4.07;;;3.53;;
14143;SDS011;7152;48.348;10.980;2023-07-08T15:47:58;5.00;;;3.28;;
14143;SDS011;7152;48.348;10.980;2023-07-08T15:50:25;4.22;;;3.38;;
14143;SDS011;7152;48.348;10.980;2023-07-08T15:52:52;4.93;;;3.33;;
14143;SDS011;7152;48.348;10.980;2023-07-08T15:55:29;4.28;;;3.65;;
14143;SDS011;7152;48.348;10.980;2023-07-08T15:58:01;4.70;;;3.33;;
14143;SDS011;7152;48.348;10.980;2023-07-08T16:00:33;4.55;;;3.15;;